createdAt,value
2022-09-18T00:01:15.095Z,77.30
2022-09-18T00:03:59.474Z,77.21
2022-09-18T00:06:45.323Z,77.42
2022-09-18T00:09:28.133Z,77.45
2022-09-18T00:12:11.474Z,77.46
2022-09-18T00:14:54.554Z,77.41
2022-09-18T00:17:38.445Z,77.13
2022-09-18T00:20:21.354Z,77.20
2022-09-18T00:23:05.604Z,77.06
2022-09-18T00:25:48.428Z,77.19
2022-09-18T00:28:31.221Z,76.90
2022-09-18T00:31:16.136Z,76.97
2022-09-18T00:34:00.251Z,76.91
2022-09-18T00:36:43.887Z,76.87
2022-09-18T00:39:28.975Z,76.92
2022-09-18T00:42:13.259Z,76.67
2022-09-18T00:44:56.103Z,76.78
2022-09-18T00:47:45.799Z,76.95
2022-09-18T00:50:28.817Z,76.68
2022-09-18T00:53:12.339Z,76.64
2022-09-18T00:55:58.641Z,76.39
2022-09-18T00:58:42.164Z,76.82
2022-09-18T01:01:26.389Z,76.85
2022-09-18T01:04:12.822Z,76.82
2022-09-18T01:07:04.919Z,77.03
2022-09-18T01:09:59.440Z,76.97
2022-09-18T01:12:51.726Z,77.03
2022-09-18T01:15:42.492Z,77.09
2022-09-18T01:18:36.038Z,77.11
2022-09-18T01:21:24.223Z,77.13
2022-09-18T01:24:35.340Z,77.01
2022-09-18T01:27:27.238Z,77.01
2022-09-18T01:30:13.786Z,77.21
2022-09-18T01:33:00.761Z,77.15
2022-09-18T01:35:50.897Z,77.28
2022-09-18T01:38:38.400Z,77.00
2022-09-18T01:41:25.710Z,77.02
2022-09-18T01:44:14.197Z,77.11
2022-09-18T01:47:00.674Z,76.93
2022-09-18T01:49:49.492Z,77.44
2022-09-18T01:52:36.801Z,77.02
2022-09-18T01:55:23.887Z,76.82
2022-09-18T01:58:10.850Z,76.94
2022-09-18T02:00:56.963Z,77.10
2022-09-18T02:03:47.655Z,76.84
2022-09-18T02:06:35.767Z,77.05
2022-09-18T02:09:19.310Z,76.88
2022-09-18T02:12:07.141Z,76.82
2022-09-18T02:14:55.080Z,76.79
2022-09-18T02:17:57.998Z,76.89
2022-09-18T02:20:53.290Z,76.78
2022-09-18T02:23:38.107Z,76.79
2022-09-18T02:26:22.533Z,76.54
2022-09-18T02:29:08.705Z,76.62
2022-09-18T02:31:51.981Z,76.44
2022-09-18T02:34:35.519Z,76.47
2022-09-18T02:37:36.051Z,75.99
2022-09-18T02:40:39.090Z,76.33
2022-09-18T02:43:38.294Z,76.23
2022-09-18T02:46:27.721Z,76.22
2022-09-18T02:49:14.506Z,76.29
2022-09-18T02:52:05.478Z,76.21
2022-09-18T02:54:56.636Z,76.27
2022-09-18T02:57:45.152Z,76.29
2022-09-18T03:00:31.969Z,76.34
2022-09-18T03:03:20.894Z,76.47
2022-09-18T03:06:10.885Z,76.55
2022-09-18T03:08:54.211Z,76.14
2022-09-18T03:11:38.434Z,76.48
2022-09-18T03:14:21.578Z,76.49
2022-09-18T03:17:04.538Z,76.46
2022-09-18T03:19:48.509Z,76.44
2022-09-18T03:22:31.385Z,76.58
2022-09-18T03:25:14.491Z,76.58
2022-09-18T03:27:59.389Z,76.49
2022-09-18T03:30:50.987Z,76.78
2022-09-18T03:33:35.198Z,76.61
2022-09-18T03:36:18.410Z,76.75
2022-09-18T03:39:01.339Z,76.85
2022-09-18T03:41:45.834Z,76.73
2022-09-18T03:44:30.042Z,76.90
2022-09-18T03:47:15.304Z,76.74
2022-09-18T03:49:58.213Z,76.90
2022-09-18T03:52:41.071Z,76.68
2022-09-18T03:55:53.545Z,76.71
2022-09-18T03:58:56.357Z,76.78
2022-09-18T04:01:59.432Z,76.69
2022-09-18T04:04:42.323Z,76.66
2022-09-18T04:07:54.370Z,76.77
2022-09-18T04:10:55.865Z,76.66
2022-09-18T04:13:41.417Z,76.56
2022-09-18T04:16:30.523Z,76.57
2022-09-18T04:19:14.760Z,76.39
2022-09-18T04:21:57.611Z,76.42
2022-09-18T04:24:40.930Z,76.42
2022-09-18T04:27:23.914Z,76.39
2022-09-18T04:30:08.376Z,76.50
2022-09-18T04:32:51.840Z,76.18
2022-09-18T04:35:37.415Z,76.41
2022-09-18T04:38:27.396Z,76.52
2022-09-18T04:41:10.891Z,76.47
2022-09-18T04:43:54.087Z,76.56
2022-09-18T04:46:36.797Z,76.59
2022-09-18T04:49:19.804Z,76.50
2022-09-18T04:52:04.157Z,76.42
2022-09-18T04:54:47.182Z,76.36
2022-09-18T04:57:30.078Z,76.42
2022-09-18T05:00:13.256Z,76.38
2022-09-18T05:02:56.613Z,76.24
2022-09-18T05:05:42.564Z,76.18
2022-09-18T05:08:29.409Z,76.28
2022-09-18T05:11:12.153Z,76.32
2022-09-18T05:13:56.905Z,76.65
2022-09-18T05:16:42.033Z,76.69
2022-09-18T05:19:38.778Z,76.96
2022-09-18T05:22:34.834Z,77.08
2022-09-18T05:25:20.713Z,77.04
2022-09-18T05:28:04.041Z,77.22
2022-09-18T05:30:53.542Z,77.33
2022-09-18T05:33:38.756Z,77.43
2022-09-18T05:36:21.451Z,77.51
2022-09-18T05:39:05.685Z,77.55
2022-09-18T05:41:51.738Z,77.52
2022-09-18T05:44:34.326Z,77.69
2022-09-18T05:47:16.985Z,77.62
2022-09-18T05:49:59.662Z,77.82
2022-09-18T05:52:42.359Z,77.75
2022-09-18T05:55:25.234Z,77.98
2022-09-18T05:58:13.035Z,77.96
2022-09-18T06:00:58.787Z,78.00
2022-09-18T06:03:50.132Z,77.92
2022-09-18T06:06:35.351Z,77.92
2022-09-18T06:09:18.548Z,78.16
2022-09-18T06:12:01.257Z,78.15
2022-09-18T06:14:50.522Z,78.12
2022-09-18T06:17:33.975Z,78.09
2022-09-18T06:20:19.991Z,77.99
2022-09-18T06:23:03.159Z,78.20
2022-09-18T06:26:00.058Z,78.12
2022-09-18T06:28:42.802Z,78.14
2022-09-18T06:31:27.352Z,78.20
2022-09-18T06:34:24.960Z,77.69
2022-09-18T06:37:10.788Z,77.81
2022-09-18T06:39:59.300Z,77.72
2022-09-18T06:42:56.452Z,77.67
2022-09-18T06:46:11.737Z,77.65
2022-09-18T06:49:01.022Z,77.57
2022-09-18T06:51:45.727Z,77.59
2022-09-18T06:54:29.031Z,77.53
2022-09-18T06:57:11.674Z,77.55
2022-09-18T06:59:55.025Z,77.46
2022-09-18T07:02:38.061Z,76.93
2022-09-18T07:05:54.092Z,76.86
2022-09-18T07:08:48.369Z,77.29
2022-09-18T07:11:39.595Z,77.06
2022-09-18T07:14:22.298Z,77.06
2022-09-18T07:17:11.216Z,76.94
2022-09-18T07:19:57.178Z,76.94
2022-09-18T07:22:54.947Z,77.27
2022-09-18T07:25:42.887Z,76.86
2022-09-18T07:28:25.744Z,76.72
2022-09-18T07:31:21.642Z,76.78
2022-09-18T07:34:07.241Z,77.18
2022-09-18T07:36:51.270Z,77.50
2022-09-18T07:39:35.550Z,77.51
2022-09-18T07:42:36.717Z,77.85
2022-09-18T07:45:19.510Z,77.32
2022-09-18T07:48:03.008Z,77.03
2022-09-18T07:50:47.670Z,77.27
2022-09-18T07:53:31.463Z,77.39
2022-09-18T07:56:16.968Z,77.63
2022-09-18T07:58:59.667Z,77.79
2022-09-18T08:01:43.607Z,77.99
2022-09-18T08:04:27.035Z,77.72
2022-09-18T08:07:32.832Z,77.91
2022-09-18T08:10:34.370Z,78.42
2022-09-18T08:13:32.160Z,78.53
2022-09-18T08:16:26.703Z,78.27
2022-09-18T08:19:18.144Z,78.30
2022-09-18T08:22:08.452Z,78.90
2022-09-18T08:24:57.071Z,78.77
2022-09-18T08:27:40.288Z,78.82
2022-09-18T08:30:24.730Z,78.97
2022-09-18T08:33:11.535Z,77.80
2022-09-18T08:35:55.855Z,77.92
2022-09-18T08:38:48.134Z,77.83
2022-09-18T08:42:05.741Z,78.40
2022-09-18T08:44:54.335Z,78.51
2022-09-18T08:47:41.399Z,78.43
2022-09-18T08:50:26.720Z,77.11
2022-09-18T08:53:17.495Z,76.34
2022-09-18T08:56:26.644Z,76.00
2022-09-18T08:59:35.967Z,75.58
2022-09-18T09:02:25.459Z,75.63
2022-09-18T09:05:14.083Z,75.49
2022-09-18T09:08:21.053Z,75.54
2022-09-18T09:11:07.912Z,76.05
2022-09-18T09:13:58.066Z,76.99
2022-09-18T09:16:43.350Z,77.23
2022-09-18T09:19:28.536Z,76.95
2022-09-18T09:22:17.426Z,76.63
2022-09-18T09:25:10.131Z,76.96
2022-09-18T09:28:16.301Z,77.26
2022-09-18T09:31:25.361Z,77.57
2022-09-18T09:34:29.403Z,77.44
2022-09-18T09:37:20.642Z,77.86
2022-09-18T09:40:06.713Z,77.62
2022-09-18T09:42:52.616Z,77.67
2022-09-18T09:45:39.835Z,77.91
2022-09-18T09:48:24.739Z,77.84
2022-09-18T09:51:11.004Z,77.65
2022-09-18T09:53:56.033Z,77.41
2022-09-18T09:56:43.964Z,77.81
2022-09-18T09:59:32.361Z,77.49
2022-09-18T10:02:29.657Z,77.33
2022-09-18T10:05:18.413Z,77.21
2022-09-18T10:08:04.742Z,77.48
2022-09-18T10:10:50.574Z,77.63
2022-09-18T10:13:35.912Z,77.54
2022-09-18T10:16:20.512Z,77.58
2022-09-18T10:19:04.927Z,77.67
2022-09-18T10:21:50.437Z,77.68
2022-09-18T10:24:42.287Z,77.87
2022-09-18T10:27:26.968Z,77.60
2022-09-18T10:30:13.450Z,77.82
2022-09-18T10:33:01.829Z,77.82
2022-09-18T10:35:54.013Z,77.89
2022-09-18T10:38:39.287Z,77.90
2022-09-18T10:41:40.543Z,78.21
2022-09-18T10:44:31.570Z,78.43
2022-09-18T10:47:22.046Z,78.28
2022-09-18T10:50:16.696Z,78.51
2022-09-18T10:53:16.532Z,78.45
2022-09-18T10:56:04.897Z,78.62
2022-09-18T10:58:47.539Z,79.16
2022-09-18T11:01:31.598Z,79.09
2022-09-18T11:04:17.466Z,79.01
2022-09-18T11:07:03.198Z,78.79
2022-09-18T11:09:46.962Z,78.97
2022-09-18T11:12:30.298Z,78.89
2022-09-18T11:15:16.526Z,78.90
2022-09-18T11:18:02.711Z,78.98
2022-09-18T11:20:47.649Z,78.83
2022-09-18T11:23:37.601Z,78.89
2022-09-18T11:26:28.330Z,79.14
2022-09-18T11:29:18.674Z,78.72
2022-09-18T11:32:05.048Z,78.82
2022-09-18T11:34:54.059Z,78.37
2022-09-18T11:37:44.261Z,78.82
2022-09-18T11:40:29.627Z,77.90
2022-09-18T11:43:16.299Z,77.28
2022-09-18T11:46:06.000Z,77.19
2022-09-18T11:48:52.756Z,77.07
2022-09-18T11:51:41.510Z,77.12
2022-09-18T11:54:28.347Z,77.33
2022-09-18T11:57:16.127Z,77.70
2022-09-18T12:00:05.341Z,77.70
2022-09-18T12:03:01.397Z,77.82
2022-09-18T12:05:52.508Z,77.59
2022-09-18T12:08:44.225Z,77.75
2022-09-18T12:11:35.685Z,78.18
2022-09-18T12:14:20.620Z,78.40
2022-09-18T12:17:25.103Z,78.61
2022-09-18T12:20:12.690Z,78.41
2022-09-18T12:22:56.764Z,78.01
2022-09-18T12:25:59.391Z,77.94
2022-09-18T12:29:09.522Z,77.80
2022-09-18T12:31:57.989Z,77.85
2022-09-18T12:34:43.930Z,78.00
2022-09-18T12:37:42.011Z,77.92
2022-09-18T12:40:37.523Z,78.11
2022-09-18T12:43:31.598Z,78.14
2022-09-18T12:46:21.395Z,78.30
2022-09-18T12:49:28.199Z,78.04
2022-09-18T12:52:18.637Z,77.69
2022-09-18T12:55:08.781Z,77.55
2022-09-18T12:57:57.181Z,77.85
2022-09-18T13:00:44.012Z,78.14
2022-09-18T13:03:30.004Z,78.29
2022-09-18T13:06:14.418Z,78.40
2022-09-18T13:08:59.269Z,78.49
2022-09-18T13:11:44.380Z,78.54
2022-09-18T13:14:29.275Z,78.94
2022-09-18T13:17:16.797Z,78.68
2022-09-18T13:20:02.514Z,78.91
2022-09-18T13:22:50.005Z,78.86
2022-09-18T13:25:38.264Z,78.79
2022-09-18T13:28:22.246Z,78.39
2022-09-18T13:31:15.993Z,78.27
2022-09-18T13:34:04.204Z,78.48
2022-09-18T13:36:47.890Z,78.31
2022-09-18T13:39:41.957Z,77.85
2022-09-18T13:42:29.970Z,77.92
2022-09-18T13:45:18.509Z,78.11
2022-09-18T13:48:04.859Z,78.11
2022-09-18T13:50:53.672Z,78.21
2022-09-18T13:53:40.755Z,78.24
2022-09-18T13:56:45.773Z,78.61
2022-09-18T13:59:45.405Z,78.50
2022-09-18T14:02:35.636Z,78.53
2022-09-18T14:05:29.692Z,78.69
2022-09-18T14:08:36.748Z,78.91
2022-09-18T14:11:25.051Z,78.99
2022-09-18T14:14:12.179Z,79.09
2022-09-18T14:16:57.963Z,79.18
2022-09-18T14:19:44.816Z,79.13
2022-09-18T14:22:29.666Z,79.18
2022-09-18T14:25:14.358Z,79.41
2022-09-18T14:27:58.130Z,79.38
2022-09-18T14:30:40.771Z,79.43
2022-09-18T14:33:23.869Z,79.37
2022-09-18T14:36:07.234Z,79.53
2022-09-18T14:38:49.838Z,79.33
2022-09-18T14:41:36.870Z,79.57
2022-09-18T14:44:20.602Z,79.70
2022-09-18T14:47:04.402Z,79.55
2022-09-18T14:49:48.304Z,79.44
2022-09-18T14:52:32.566Z,79.53
2022-09-18T14:55:19.860Z,79.77
2022-09-18T14:58:06.940Z,79.55
2022-09-18T15:00:54.303Z,79.79
2022-09-18T15:03:39.438Z,79.77
2022-09-18T15:06:24.638Z,79.89
2022-09-18T15:09:08.965Z,79.73
2022-09-18T15:12:02.233Z,79.58
2022-09-18T15:14:47.819Z,79.54
2022-09-18T15:17:32.440Z,79.83
2022-09-18T15:20:16.114Z,79.65
2022-09-18T15:22:58.823Z,79.86
2022-09-18T15:25:44.213Z,79.93
2022-09-18T15:28:27.962Z,80.11
2022-09-18T15:31:13.110Z,80.25
2022-09-18T15:33:57.450Z,79.95
2022-09-18T15:36:41.141Z,80.06
2022-09-18T15:39:29.681Z,79.82
2022-09-18T15:42:19.250Z,79.98
2022-09-18T15:45:11.112Z,80.06
2022-09-18T15:47:55.646Z,80.01
2022-09-18T15:50:39.757Z,80.02
2022-09-18T15:53:29.474Z,80.06
2022-09-18T15:56:20.918Z,79.88
2022-09-18T15:59:06.262Z,79.98
2022-09-18T16:01:49.144Z,79.87
2022-09-18T16:04:34.946Z,79.92
2022-09-18T16:07:21.496Z,79.80
2022-09-18T16:10:04.761Z,80.06
2022-09-18T16:12:47.675Z,79.91
2022-09-18T16:15:30.671Z,80.03
2022-09-18T16:18:23.195Z,79.97
2022-09-18T16:21:08.870Z,80.01
2022-09-18T16:23:53.622Z,80.08
2022-09-18T16:26:37.443Z,80.01
2022-09-18T16:29:22.130Z,80.15
2022-09-18T16:32:09.585Z,80.45
2022-09-18T16:34:52.279Z,80.67
2022-09-18T16:37:38.731Z,80.50
2022-09-18T16:40:27.181Z,80.48
2022-09-18T16:43:10.801Z,80.56
2022-09-18T16:45:54.225Z,80.40
2022-09-18T16:48:37.155Z,80.47
2022-09-18T16:51:19.789Z,80.43
2022-09-18T16:54:03.872Z,80.37
2022-09-18T16:56:51.586Z,80.24
2022-09-18T16:59:36.051Z,80.07
2022-09-18T17:02:23.322Z,80.18
2022-09-18T17:05:08.971Z,80.24
2022-09-18T17:07:51.715Z,80.24
2022-09-18T17:10:36.169Z,80.42
2022-09-18T17:13:18.817Z,80.47
2022-09-18T17:16:02.041Z,80.38
2022-09-18T17:18:45.073Z,80.07
2022-09-18T17:21:27.774Z,79.98
2022-09-18T17:24:10.833Z,80.22
2022-09-18T17:26:55.011Z,79.86
2022-09-18T17:29:37.706Z,79.69
2022-09-18T17:32:20.354Z,79.66
2022-09-18T17:35:03.066Z,79.83
2022-09-18T17:37:45.928Z,79.67
2022-09-18T17:40:28.642Z,80.19
2022-09-18T17:43:15.726Z,80.12
2022-09-18T17:45:59.164Z,79.88
2022-09-18T17:48:41.880Z,80.09
2022-09-18T17:51:28.490Z,79.96
2022-09-18T17:54:12.218Z,80.26
2022-09-18T17:56:55.711Z,80.15
2022-09-18T17:59:40.198Z,80.13
2022-09-18T18:02:22.987Z,79.94
2022-09-18T18:05:06.100Z,80.13
2022-09-18T18:07:48.821Z,80.08
2022-09-18T18:10:31.555Z,80.03
2022-09-18T18:13:17.947Z,79.97
2022-09-18T18:16:07.478Z,79.99
2022-09-18T18:18:50.229Z,80.28
2022-09-18T18:21:33.959Z,80.19
2022-09-18T18:24:18.379Z,79.97
2022-09-18T18:27:02.116Z,80.05
2022-09-18T18:29:45.500Z,79.84
2022-09-18T18:32:29.635Z,79.85
2022-09-18T18:35:12.409Z,79.78
2022-09-18T18:37:55.113Z,79.76
2022-09-18T18:40:39.568Z,79.79
2022-09-18T18:43:23.091Z,79.86
2022-09-18T18:46:08.145Z,79.54
2022-09-18T18:49:00.017Z,79.58
2022-09-18T18:51:45.939Z,79.45
2022-09-18T18:54:28.937Z,79.55
2022-09-18T18:57:11.668Z,79.52
2022-09-18T18:59:57.221Z,79.52
2022-09-18T19:02:40.007Z,79.65
2022-09-18T19:05:30.336Z,79.68
2022-09-18T19:08:14.189Z,79.72
2022-09-18T19:10:57.598Z,79.80
2022-09-18T19:13:43.113Z,79.93
2022-09-18T19:16:27.166Z,79.82
2022-09-18T19:19:09.924Z,79.96
2022-09-18T19:21:54.329Z,79.76
2022-09-18T19:24:37.047Z,79.84
2022-09-18T19:27:19.983Z,80.01
2022-09-18T19:30:02.941Z,80.08
2022-09-18T19:32:45.668Z,79.92
2022-09-18T19:35:28.585Z,79.76
2022-09-18T19:38:20.317Z,79.83
2022-09-18T19:41:05.863Z,79.80
2022-09-18T19:43:48.717Z,79.71
2022-09-18T19:46:32.735Z,79.61
2022-09-18T19:49:17.377Z,79.53
2022-09-18T19:52:00.434Z,79.50
2022-09-18T19:54:44.401Z,79.59
2022-09-18T19:57:27.488Z,79.47
2022-09-18T20:00:10.982Z,79.76
2022-09-18T20:02:58.543Z,79.55
2022-09-18T20:05:41.542Z,79.55
2022-09-18T20:08:24.820Z,79.44
2022-09-18T20:11:09.018Z,79.41
2022-09-18T20:13:51.784Z,79.44
2022-09-18T20:16:34.451Z,79.56
2022-09-18T20:19:17.204Z,79.49
2022-09-18T20:22:03.039Z,79.34
2022-09-18T20:24:46.637Z,79.54
2022-09-18T20:27:35.912Z,79.72
2022-09-18T20:30:19.508Z,79.53
2022-09-18T20:33:02.263Z,79.56
2022-09-18T20:35:46.308Z,79.38
2022-09-18T20:38:30.613Z,79.13
2022-09-18T20:41:15.189Z,79.13
2022-09-18T20:44:03.004Z,79.22
2022-09-18T20:46:45.696Z,79.35
2022-09-18T20:49:28.382Z,79.48
2022-09-18T20:52:14.462Z,79.46
2022-09-18T20:54:57.656Z,79.46
2022-09-18T20:57:40.911Z,79.50
2022-09-18T21:00:25.633Z,79.57
2022-09-18T21:03:08.668Z,79.48
2022-09-18T21:06:07.459Z,79.68
2022-09-18T21:08:54.774Z,79.67
2022-09-18T21:11:38.547Z,79.85
2022-09-18T21:14:21.310Z,79.81
2022-09-18T21:17:10.683Z,79.73
2022-09-18T21:19:53.317Z,80.09
2022-09-18T21:22:55.942Z,79.97
2022-09-18T21:25:38.685Z,80.29
2022-09-18T21:28:21.372Z,80.24
2022-09-18T21:31:08.154Z,80.22
2022-09-18T21:33:53.235Z,80.33
2022-09-18T21:36:38.600Z,80.24
2022-09-18T21:39:21.282Z,80.24
2022-09-18T21:42:07.297Z,80.45
2022-09-18T21:44:49.924Z,80.39
2022-09-18T21:47:32.693Z,80.33
2022-09-18T21:50:16.976Z,80.33
2022-09-18T21:52:59.576Z,80.35
2022-09-18T21:55:42.178Z,80.61
2022-09-18T21:58:25.958Z,80.33
2022-09-18T22:01:09.585Z,80.31
2022-09-18T22:03:54.687Z,79.90
2022-09-18T22:06:40.904Z,80.05
2022-09-18T22:09:24.655Z,79.84
2022-09-18T22:12:07.785Z,79.91
2022-09-18T22:14:50.512Z,79.50
2022-09-18T22:17:33.220Z,79.48
2022-09-18T22:20:17.573Z,79.58
2022-09-18T22:23:01.543Z,79.48
2022-09-18T22:25:44.340Z,79.72
2022-09-18T22:28:26.919Z,79.76
2022-09-18T22:31:10.207Z,79.73
2022-09-18T22:33:54.464Z,79.91
2022-09-18T22:36:37.062Z,80.03
2022-09-18T22:39:21.687Z,80.03
2022-09-18T22:42:04.452Z,79.99
2022-09-18T22:44:47.046Z,79.98
2022-09-18T22:47:29.896Z,79.95
2022-09-18T22:50:12.506Z,79.88
2022-09-18T22:52:55.088Z,79.75
2022-09-18T22:57:37.131Z,80.11
2022-09-18T23:00:20.054Z,80.00
2022-09-18T23:03:02.968Z,80.06
2022-09-18T23:05:47.043Z,80.13
2022-09-18T23:08:31.926Z,80.20
2022-09-18T23:11:16.337Z,80.17
2022-09-18T23:14:02.070Z,80.03
2022-09-18T23:16:45.247Z,79.95
2022-09-18T23:19:29.811Z,80.07
2022-09-18T23:22:12.586Z,80.07
2022-09-18T23:24:55.454Z,80.17
2022-09-18T23:27:38.454Z,79.75
2022-09-18T23:30:22.553Z,80.10
2022-09-18T23:33:05.538Z,79.68
2022-09-18T23:35:48.431Z,79.76
2022-09-18T23:38:31.232Z,79.59
2022-09-18T23:41:16.333Z,79.25
2022-09-18T23:43:59.105Z,79.47
2022-09-18T23:46:44.342Z,79.31
2022-09-18T23:49:28.083Z,79.31
2022-09-18T23:52:10.907Z,79.28
2022-09-18T23:54:53.766Z,79.22
2022-09-18T23:57:36.927Z,79.31
